createdAt,value
2018-07-20T00:01:54.645Z,5.47
2018-07-20T00:04:23.571Z,5.23
2018-07-20T00:06:52.422Z,5.73
2018-07-20T00:09:21.418Z,5.47
2018-07-20T00:11:50.327Z,5.17
2018-07-20T00:14:19.275Z,5.47
2018-07-20T00:16:48.162Z,5.63
2018-07-20T00:19:17.085Z,5.23
2018-07-20T00:21:46.040Z,5.93
2018-07-20T00:24:14.886Z,5.50
2018-07-20T00:26:43.825Z,5.97
2018-07-20T00:29:12.715Z,5.70
2018-07-20T00:31:43.404Z,5.60
2018-07-20T00:34:12.269Z,5.13
2018-07-20T00:36:41.189Z,5.40
2018-07-20T00:39:11.181Z,5.30
2018-07-20T00:41:40.528Z,5.40
2018-07-20T00:44:09.062Z,5.43
2018-07-20T00:46:37.956Z,5.43
2018-07-20T00:49:06.823Z,5.03
2018-07-20T00:51:35.823Z,5.83
2018-07-20T00:54:04.770Z,5.57
2018-07-20T00:56:33.203Z,5.50
2018-07-20T00:59:02.152Z,5.83
2018-07-20T01:01:31.079Z,5.67
2018-07-20T01:03:59.969Z,5.60
2018-07-20T01:06:29.000Z,5.67
2018-07-20T01:08:57.884Z,5.60
2018-07-20T01:11:26.804Z,5.30
2018-07-20T01:13:55.319Z,5.37
2018-07-20T01:16:25.406Z,5.73
2018-07-20T01:18:53.900Z,5.63
2018-07-20T01:21:22.788Z,5.50
2018-07-20T01:23:51.722Z,5.37
2018-07-20T01:26:20.644Z,5.80
2018-07-20T01:28:49.624Z,5.40
2018-07-20T01:31:18.596Z,5.30
2018-07-20T01:33:47.462Z,5.40
2018-07-20T01:36:17.111Z,5.57
2018-07-20T01:38:46.099Z,5.50
2018-07-20T01:41:15.003Z,5.40
2018-07-20T01:43:43.929Z,5.10
2018-07-20T01:46:12.819Z,5.60
2018-07-20T01:48:41.725Z,5.80
2018-07-20T01:51:10.579Z,5.47
2018-07-20T01:53:39.127Z,5.87
2018-07-20T01:56:08.029Z,5.93
2018-07-20T01:58:36.911Z,5.40
2018-07-20T02:01:05.796Z,5.77
2018-07-20T02:03:34.748Z,5.37
2018-07-20T02:06:03.605Z,5.73
2018-07-20T02:08:32.589Z,5.70
2018-07-20T02:11:01.898Z,5.53
2018-07-20T02:13:30.799Z,5.80
2018-07-20T02:15:59.909Z,6.00
2018-07-20T02:18:28.439Z,5.57
2018-07-20T02:20:57.284Z,5.63
2018-07-20T02:23:26.257Z,6.07
2018-07-20T02:25:55.171Z,5.47
2018-07-20T02:28:25.040Z,5.73
2018-07-20T02:30:53.921Z,5.73
2018-07-20T02:33:22.820Z,5.90
2018-07-20T02:35:52.466Z,5.57
2018-07-20T02:38:21.115Z,5.63
2018-07-20T02:40:50.025Z,5.83
2018-07-20T02:43:18.928Z,5.77
2018-07-20T02:45:47.412Z,5.40
2018-07-20T02:48:15.940Z,5.57
2018-07-20T02:50:44.856Z,6.20
2018-07-20T02:53:13.708Z,6.10
2018-07-20T02:55:42.609Z,5.57
2018-07-20T02:58:11.531Z,5.50
2018-07-20T03:00:40.465Z,5.00
2018-07-20T03:03:09.328Z,5.80
2018-07-20T03:05:37.808Z,5.30
2018-07-20T03:08:06.483Z,5.60
2018-07-20T03:10:35.416Z,5.50
2018-07-20T03:13:04.320Z,5.50
2018-07-20T03:15:33.635Z,5.27
2018-07-20T03:18:02.539Z,5.80
2018-07-20T03:20:31.436Z,5.53
2018-07-20T03:23:00.379Z,5.67
2018-07-20T03:25:30.820Z,5.67
2018-07-20T03:27:59.727Z,6.17
2018-07-20T03:30:29.581Z,6.17
2018-07-20T03:32:58.621Z,6.60
2018-07-20T03:35:27.009Z,6.90
2018-07-20T03:37:55.932Z,6.63
2018-07-20T03:40:24.836Z,6.43
2018-07-20T03:42:53.784Z,6.60
2018-07-20T03:45:22.686Z,6.23
2018-07-20T03:47:51.612Z,6.27
2018-07-20T03:50:20.533Z,6.70
2018-07-20T03:52:49.452Z,7.10
2018-07-20T03:55:18.352Z,6.67
2018-07-20T03:57:47.274Z,7.00
2018-07-20T04:00:16.677Z,6.40
2018-07-20T04:02:46.136Z,6.40
2018-07-20T04:05:15.071Z,6.20
2018-07-20T04:07:43.992Z,6.90
2018-07-20T04:10:12.938Z,6.70
2018-07-20T04:12:41.817Z,6.50
2018-07-20T04:15:10.756Z,6.53
2018-07-20T04:17:43.639Z,6.83
2018-07-20T04:20:13.721Z,6.97
2018-07-20T04:22:42.749Z,6.87
2018-07-20T04:25:11.805Z,6.97
2018-07-20T04:27:40.845Z,6.73
2018-07-20T04:30:12.241Z,6.13
2018-07-20T04:32:41.277Z,6.73
2018-07-20T04:35:10.584Z,6.40
2018-07-20T04:37:39.550Z,6.97
2018-07-20T04:40:08.456Z,7.03
2018-07-20T04:42:37.276Z,11.57
2018-07-20T04:45:06.515Z,9.30
2018-07-20T04:47:35.408Z,9.93
2018-07-20T04:50:05.062Z,8.00
2018-07-20T04:52:34.077Z,7.43
2018-07-20T04:55:03.064Z,6.90
2018-07-20T04:57:32.012Z,6.60
2018-07-20T05:00:01.362Z,6.93
2018-07-20T05:02:30.260Z,7.03
2018-07-20T05:04:59.241Z,9.27
2018-07-20T05:07:28.164Z,7.10
2018-07-20T05:09:57.071Z,6.60
2018-07-20T05:12:27.009Z,5.97
2018-07-20T05:14:56.808Z,6.60
2018-07-20T05:17:25.283Z,6.30
2018-07-20T05:19:54.365Z,6.57
2018-07-20T05:22:23.365Z,6.27
2018-07-20T05:24:52.306Z,6.33
2018-07-20T05:27:21.315Z,6.40
2018-07-20T05:29:50.274Z,6.20
2018-07-20T05:32:19.208Z,6.27
2018-07-20T05:34:48.157Z,6.80
2018-07-20T05:37:17.094Z,6.60
2018-07-20T05:39:45.621Z,6.43
2018-07-20T05:42:14.404Z,6.90
2018-07-20T05:44:42.920Z,6.90
2018-07-20T05:47:11.910Z,6.93
2018-07-20T05:49:40.934Z,6.37
2018-07-20T05:52:10.653Z,6.40
2018-07-20T05:54:39.561Z,6.57
2018-07-20T05:57:08.549Z,6.00
2018-07-20T05:59:37.445Z,6.80
2018-07-20T06:02:06.528Z,6.77
2018-07-20T06:04:35.484Z,6.13
2018-07-20T06:07:04.511Z,7.20
2018-07-20T06:09:33.485Z,6.00
2018-07-20T06:12:02.389Z,5.80
2018-07-20T06:14:31.304Z,6.70
2018-07-20T06:17:00.760Z,6.57
2018-07-20T06:19:29.715Z,6.40
2018-07-20T06:21:58.168Z,6.13
2018-07-20T06:24:27.036Z,6.70
2018-07-20T06:26:55.948Z,5.63
2018-07-20T06:29:24.849Z,6.20
2018-07-20T06:31:53.804Z,6.13
2018-07-20T06:34:22.667Z,5.60
2018-07-20T06:36:51.592Z,6.77
2018-07-20T06:39:20.479Z,5.77
2018-07-20T06:41:49.382Z,5.87
2018-07-20T06:44:21.742Z,5.87
2018-07-20T06:46:50.606Z,6.03
2018-07-20T06:49:19.685Z,5.90
2018-07-20T06:51:48.591Z,5.80
2018-07-20T06:54:17.570Z,5.57
2018-07-20T06:56:46.485Z,5.20
2018-07-20T06:59:15.400Z,5.43
2018-07-20T07:01:44.317Z,5.77
2018-07-20T07:04:13.224Z,6.00
2018-07-20T07:06:41.705Z,5.07
2018-07-20T07:09:11.199Z,5.67
2018-07-20T07:11:40.434Z,5.60
2018-07-20T07:14:09.307Z,5.27
2018-07-20T07:16:38.592Z,5.50
2018-07-20T07:19:07.518Z,5.63
2018-07-20T07:21:36.431Z,5.50
2018-07-20T07:24:05.370Z,5.47
2018-07-20T07:26:33.861Z,5.40
2018-07-20T07:29:02.792Z,5.70
2018-07-20T07:31:31.693Z,5.80
2018-07-20T07:34:01.588Z,5.80
2018-07-20T07:36:30.513Z,5.57
2018-07-20T07:38:59.473Z,5.70
2018-07-20T07:41:28.431Z,6.07
2018-07-20T07:43:57.324Z,6.13
2018-07-20T07:46:26.265Z,5.27
2018-07-20T07:48:55.186Z,6.07
2018-07-20T07:51:24.127Z,6.00
2018-07-20T07:53:53.007Z,5.40
2018-07-20T07:56:21.920Z,5.83
2018-07-20T07:58:50.903Z,7.07
2018-07-20T08:01:19.852Z,6.27
2018-07-20T08:03:48.732Z,6.30
2018-07-20T08:06:17.600Z,6.30
2018-07-20T08:08:46.515Z,5.53
2018-07-20T08:11:15.389Z,6.17
2018-07-20T08:13:44.324Z,5.80
2018-07-20T08:16:13.557Z,6.00
2018-07-20T08:18:42.440Z,5.17
2018-07-20T08:21:11.684Z,5.87
2018-07-20T08:23:40.652Z,5.70
2018-07-20T08:26:09.508Z,5.37
2018-07-20T08:28:38.426Z,5.63
2018-07-20T08:31:07.448Z,5.33
2018-07-20T08:33:36.320Z,5.60
2018-07-20T08:36:05.263Z,5.40
2018-07-20T08:38:34.187Z,5.30
2018-07-20T08:41:03.163Z,5.60
2018-07-20T08:43:32.069Z,5.53
2018-07-20T08:46:00.993Z,5.63
2018-07-20T08:48:29.917Z,6.00
2018-07-20T08:50:58.375Z,6.03
2018-07-20T08:53:27.284Z,5.37
2018-07-20T08:55:55.756Z,5.80
2018-07-20T08:58:24.737Z,5.40
2018-07-20T09:00:53.617Z,5.50
2018-07-20T09:03:22.560Z,5.62
2018-07-20T09:05:51.480Z,5.67
2018-07-20T09:08:20.339Z,5.40
2018-07-20T09:10:49.257Z,5.62
2018-07-20T09:13:18.196Z,4.97
2018-07-20T09:15:47.141Z,4.90
2018-07-20T09:18:16.007Z,4.80
2018-07-20T09:20:45.014Z,4.72
2018-07-20T09:23:13.485Z,4.45
2018-07-20T09:25:42.356Z,4.50
2018-07-20T09:28:11.606Z,4.72
2018-07-20T09:30:40.512Z,4.12
2018-07-20T09:33:09.402Z,4.80
2018-07-20T09:35:38.285Z,4.50
2018-07-20T09:38:07.224Z,4.45
2018-07-20T09:40:36.096Z,4.80
2018-07-20T09:43:05.035Z,4.40
2018-07-20T09:45:33.991Z,4.97
2018-07-20T09:48:02.895Z,4.60
2018-07-20T09:50:31.748Z,4.90
2018-07-20T09:53:00.680Z,4.90
2018-07-20T09:55:29.568Z,4.70
2018-07-20T09:57:58.484Z,4.58
2018-07-20T10:00:32.476Z,4.80
2018-07-20T10:03:01.422Z,5.10
2018-07-20T10:05:30.312Z,5.12
2018-07-20T10:07:59.236Z,5.08
2018-07-20T10:10:28.180Z,5.20
2018-07-20T10:12:57.147Z,4.87
2018-07-20T10:15:26.133Z,4.95
2018-07-20T10:17:55.020Z,4.50
2018-07-20T10:20:23.922Z,5.05
2018-07-20T10:22:52.869Z,4.67
2018-07-20T10:25:21.791Z,4.30
2018-07-20T10:27:50.705Z,4.22
2018-07-20T10:30:19.595Z,4.42
2018-07-20T10:32:48.521Z,4.58
2018-07-20T10:35:17.469Z,4.70
2018-07-20T10:37:46.340Z,4.60
2018-07-20T10:40:15.284Z,4.20
2018-07-20T10:42:44.247Z,4.37
2018-07-20T10:45:13.172Z,4.33
2018-07-20T10:47:42.090Z,4.35
2018-07-20T10:50:10.571Z,4.15
2018-07-20T10:52:39.481Z,4.03
2018-07-20T10:55:08.423Z,4.75
2018-07-20T10:57:37.358Z,4.72
2018-07-20T11:00:06.341Z,4.47
2018-07-20T11:02:35.308Z,4.30
2018-07-20T11:05:04.292Z,4.65
2018-07-20T11:07:33.310Z,4.20
2018-07-20T11:10:03.232Z,4.28
2018-07-20T11:12:32.169Z,4.05
2018-07-20T11:15:01.070Z,4.70
2018-07-20T11:17:29.990Z,4.28
2018-07-20T11:19:58.869Z,4.35
2018-07-20T11:22:27.821Z,4.47
2018-07-20T11:24:56.768Z,4.35
2018-07-20T11:27:25.716Z,4.33
2018-07-20T11:29:54.669Z,4.55
2018-07-20T11:32:24.269Z,4.30
2018-07-20T11:34:53.194Z,4.53
2018-07-20T11:37:22.124Z,4.30
2018-07-20T11:39:51.075Z,4.70
2018-07-20T11:42:19.982Z,4.37
2018-07-20T11:44:48.943Z,4.92
2018-07-20T11:47:18.260Z,4.90
2018-07-20T11:49:47.193Z,4.62
2018-07-20T11:52:16.085Z,3.95
2018-07-20T11:54:45.025Z,4.85
2018-07-20T11:57:13.965Z,4.15
2018-07-20T11:59:42.913Z,4.53
2018-07-20T12:02:11.852Z,4.47
2018-07-20T12:04:40.940Z,4.28
2018-07-20T12:07:09.885Z,4.30
2018-07-20T12:09:39.192Z,4.80
2018-07-20T12:12:08.231Z,4.40
2018-07-20T12:14:37.215Z,4.47
2018-07-20T12:17:11.848Z,4.70
2018-07-20T12:19:41.200Z,4.70
2018-07-20T12:22:10.608Z,5.15
2018-07-20T12:24:39.777Z,4.40
2018-07-20T12:27:08.973Z,4.30
2018-07-20T12:29:37.868Z,4.58
2018-07-20T12:32:06.712Z,4.95
2018-07-20T12:34:37.003Z,4.75
2018-07-20T12:37:21.266Z,4.97
2018-07-20T12:39:50.160Z,5.28
2018-07-20T12:42:19.080Z,5.58
2018-07-20T12:44:54.130Z,5.40
2018-07-20T12:47:24.010Z,5.03
2018-07-20T12:49:52.912Z,5.45
2018-07-20T12:52:21.821Z,4.85
2018-07-20T12:54:56.022Z,5.28
2018-07-20T12:57:24.989Z,5.22
2018-07-20T12:59:53.967Z,4.78
2018-07-20T13:02:22.929Z,5.17
2018-07-20T13:05:02.609Z,4.40
2018-07-20T13:07:34.049Z,5.12
2018-07-20T13:10:03.000Z,4.83
2018-07-20T13:12:31.952Z,5.15
2018-07-20T13:15:00.864Z,5.33
2018-07-20T13:17:30.700Z,4.95
2018-07-20T13:19:59.565Z,5.12
2018-07-20T13:22:28.491Z,5.10
2018-07-20T13:24:57.427Z,5.20
2018-07-20T13:27:26.376Z,5.00
2018-07-20T13:29:55.346Z,5.05
2018-07-20T13:32:23.853Z,5.10
2018-07-20T13:34:52.752Z,4.85
2018-07-20T13:37:21.660Z,5.15
2018-07-20T13:39:50.661Z,4.90
2018-07-20T13:42:19.583Z,5.05
2018-07-20T13:44:48.472Z,5.03
2018-07-20T13:47:16.969Z,5.08
2018-07-20T13:49:46.050Z,5.03
2018-07-20T13:52:15.054Z,5.58
2018-07-20T13:54:44.040Z,5.00
2018-07-20T13:57:13.007Z,5.12
2018-07-20T13:59:41.909Z,5.30
2018-07-20T14:02:11.072Z,5.12
2018-07-20T14:04:40.616Z,5.12
2018-07-20T14:07:09.564Z,4.62
2018-07-20T14:09:38.672Z,5.20
2018-07-20T14:12:08.230Z,5.45
2018-07-20T14:14:37.108Z,5.42
2018-07-20T14:17:06.260Z,5.70
2018-07-20T14:19:35.131Z,4.90
2018-07-20T14:22:03.676Z,5.10
2018-07-20T14:24:32.536Z,5.50
2018-07-20T14:27:01.472Z,5.75
2018-07-20T14:29:30.360Z,5.65
2018-07-20T14:31:59.341Z,5.80
2018-07-20T14:34:28.281Z,5.83
2018-07-20T14:36:57.184Z,5.65
2018-07-20T14:39:25.683Z,5.95
2018-07-20T14:41:54.592Z,5.30
2018-07-20T14:44:23.472Z,6.03
2018-07-20T14:46:52.406Z,5.45
2018-07-20T14:49:21.348Z,5.78
2018-07-20T14:51:50.259Z,5.45
2018-07-20T14:54:19.192Z,5.75
2018-07-20T14:56:47.624Z,6.15
2018-07-20T14:59:16.472Z,5.50
2018-07-20T15:01:45.427Z,5.72
2018-07-20T15:04:14.308Z,5.55
2018-07-20T15:06:43.256Z,5.65
2018-07-20T15:09:13.248Z,5.58
2018-07-20T15:11:42.372Z,5.70
2018-07-20T15:14:11.511Z,5.60
2018-07-20T15:16:40.420Z,6.62
2018-07-20T15:19:09.352Z,5.42
2018-07-20T15:21:38.777Z,5.60
2018-07-20T15:24:08.452Z,5.75
2018-07-20T15:26:37.337Z,5.25
2018-07-20T15:29:06.356Z,5.67
2018-07-20T15:31:35.268Z,5.17
2018-07-20T15:34:04.854Z,5.03
2018-07-20T15:36:33.895Z,5.00
2018-07-20T15:39:02.912Z,4.83
2018-07-20T15:41:31.395Z,4.83
2018-07-20T15:44:00.286Z,5.12
2018-07-20T15:46:28.879Z,4.83
2018-07-20T15:48:57.678Z,4.60
2018-07-20T15:51:55.486Z,4.53
2018-07-20T15:53:55.610Z,4.87
2018-07-20T15:56:24.499Z,4.45
2018-07-20T15:58:53.408Z,4.70
2018-07-20T16:01:22.268Z,4.70
2018-07-20T16:03:51.191Z,4.40
2018-07-20T16:06:25.408Z,5.10
2018-07-20T16:08:54.734Z,4.60
2018-07-20T16:11:23.905Z,4.62
2018-07-20T16:13:52.833Z,4.25
2018-07-20T16:16:21.776Z,4.33
2018-07-20T16:18:50.708Z,4.78
2018-07-20T16:21:19.640Z,4.40
2018-07-20T16:23:48.552Z,4.37
2018-07-20T16:26:17.506Z,4.90
2018-07-20T16:28:46.472Z,4.65
2018-07-20T16:31:16.236Z,4.55
2018-07-20T16:33:45.132Z,4.85
2018-07-20T16:36:13.976Z,4.60
2018-07-20T16:38:42.969Z,4.70
2018-07-20T16:41:11.884Z,4.47
2018-07-20T16:43:41.632Z,4.50
2018-07-20T16:46:10.583Z,5.97
2018-07-20T16:48:39.564Z,6.70
2018-07-20T16:51:08.549Z,6.25
2018-07-20T16:53:38.031Z,6.60
2018-07-20T16:56:06.918Z,6.70
2018-07-20T16:58:35.918Z,6.87
2018-07-20T17:01:04.819Z,6.35
2018-07-20T17:03:33.735Z,6.47
2018-07-20T17:06:02.600Z,6.53
2018-07-20T17:08:31.498Z,6.30
2018-07-20T17:11:00.416Z,6.10
2018-07-20T17:13:30.049Z,6.05
2018-07-20T17:15:58.940Z,5.42
2018-07-20T17:18:27.871Z,5.37
2018-07-20T17:20:56.870Z,5.40
2018-07-20T17:23:25.744Z,5.05
2018-07-20T17:25:54.628Z,5.20
2018-07-20T17:28:23.512Z,5.10
2018-07-20T17:30:52.384Z,5.08
2018-07-20T17:33:21.280Z,5.47
2018-07-20T17:35:50.187Z,5.60
2018-07-20T17:38:19.237Z,5.60
2018-07-20T17:40:48.507Z,5.60
2018-07-20T17:43:17.480Z,5.00
2018-07-20T17:45:46.010Z,5.62
2018-07-20T17:48:14.916Z,5.12
2018-07-20T17:50:43.969Z,5.03
2018-07-20T17:53:12.866Z,5.08
2018-07-20T17:55:41.867Z,5.45
2018-07-20T17:58:10.773Z,4.70
2018-07-20T18:00:39.808Z,4.92
2018-07-20T18:03:08.833Z,4.40
2018-07-20T18:05:38.528Z,4.55
2018-07-20T18:08:07.453Z,4.58
2018-07-20T18:10:36.355Z,4.25
2018-07-20T18:13:05.303Z,4.50
2018-07-20T18:15:33.830Z,4.45
2018-07-20T18:18:02.740Z,4.10
2018-07-20T18:20:31.644Z,3.90
2018-07-20T18:23:00.609Z,3.90
2018-07-20T18:25:30.120Z,3.67
2018-07-20T18:27:59.091Z,3.67
2018-07-20T18:30:27.957Z,3.83
2018-07-20T18:32:56.881Z,3.63
2018-07-20T18:35:25.772Z,3.57
2018-07-20T18:37:54.696Z,3.27
2018-07-20T18:40:24.792Z,3.50
2018-07-20T18:42:53.713Z,3.83
2018-07-20T18:45:22.596Z,3.73
2018-07-20T18:47:51.661Z,3.90
2018-07-20T18:50:20.617Z,3.83
2018-07-20T18:52:49.704Z,3.80
2018-07-20T18:55:18.306Z,3.23
2018-07-20T18:57:47.641Z,3.60
2018-07-20T19:00:16.555Z,3.60
2018-07-20T19:02:45.537Z,3.43
2018-07-20T19:05:15.512Z,3.67
2018-07-20T19:07:44.530Z,3.40
2018-07-20T19:10:13.473Z,3.97
2018-07-20T19:12:42.044Z,3.23
2018-07-20T19:15:10.912Z,3.70
2018-07-20T19:17:40.547Z,3.73
2018-07-20T19:20:09.027Z,3.70
2018-07-20T19:22:37.529Z,3.93
2018-07-20T19:25:06.531Z,3.60
2018-07-20T19:27:35.701Z,4.20
2018-07-20T19:30:04.356Z,4.20
2018-07-20T19:32:33.242Z,4.20
2018-07-20T19:35:03.568Z,4.03
2018-07-20T19:37:32.481Z,4.30
2018-07-20T19:40:01.743Z,4.20
2018-07-20T19:42:31.143Z,5.20
2018-07-20T19:45:00.096Z,5.57
2018-07-20T19:47:29.040Z,4.07
2018-07-20T19:49:57.962Z,4.37
2018-07-20T19:52:26.855Z,4.27
2018-07-20T19:54:55.760Z,4.37
2018-07-20T19:57:24.892Z,4.60
2018-07-20T19:59:53.889Z,4.80
2018-07-20T20:02:22.863Z,5.03
2018-07-20T20:04:51.785Z,5.10
2018-07-20T20:07:20.869Z,5.37
2018-07-20T20:09:49.842Z,5.40
2018-07-20T20:12:18.730Z,5.13
2018-07-20T20:14:47.869Z,5.30
2018-07-20T20:17:16.812Z,5.33
2018-07-20T20:19:45.756Z,5.40
2018-07-20T20:22:14.892Z,5.30
2018-07-20T20:24:44.084Z,5.93
2018-07-20T20:27:12.626Z,5.63
2018-07-20T20:29:41.642Z,5.77
2018-07-20T20:32:10.606Z,5.80
2018-07-20T20:34:39.750Z,5.73
2018-07-20T20:37:08.620Z,5.43
2018-07-20T20:39:37.529Z,6.20
2018-07-20T20:42:06.554Z,6.30
2018-07-20T20:44:35.447Z,6.27
2018-07-20T20:47:04.556Z,5.83
2018-07-20T20:49:33.497Z,5.87
2018-07-20T20:52:02.053Z,5.77
2018-07-20T20:54:30.949Z,6.03
2018-07-20T20:56:59.948Z,5.80
2018-07-20T20:59:28.832Z,6.00
2018-07-20T21:01:57.729Z,6.37
2018-07-20T21:04:26.703Z,6.40
2018-07-20T21:06:56.263Z,7.10
2018-07-20T21:09:25.204Z,7.00
2018-07-20T21:11:54.167Z,6.50
2018-07-20T21:14:23.389Z,6.47
2018-07-20T21:16:52.285Z,6.57
2018-07-20T21:19:21.200Z,6.07
2018-07-20T21:21:50.187Z,6.17
2018-07-20T21:24:19.076Z,6.50
2018-07-20T21:26:48.013Z,6.70
2018-07-20T21:29:16.942Z,6.80
2018-07-20T21:31:45.852Z,6.70
2018-07-20T21:34:14.712Z,6.60
2018-07-20T21:36:43.712Z,6.33
2018-07-20T21:39:14.028Z,7.20
2018-07-20T21:41:43.670Z,7.00
2018-07-20T21:44:12.851Z,7.50
2018-07-20T21:46:41.768Z,7.43
2018-07-20T21:49:10.257Z,7.03
2018-07-20T21:51:38.759Z,7.93
2018-07-20T21:54:07.702Z,7.43
2018-07-20T21:56:36.619Z,7.63
2018-07-20T21:59:05.084Z,7.33
2018-07-20T22:01:33.969Z,6.93
2018-07-20T22:04:03.779Z,7.50
2018-07-20T22:06:32.801Z,6.70
2018-07-20T22:09:01.257Z,7.20
2018-07-20T22:11:30.234Z,6.90
2018-07-20T22:13:59.106Z,7.07
2018-07-20T22:16:28.544Z,6.77
2018-07-20T22:18:57.401Z,7.23
2018-07-20T22:21:26.322Z,7.40
2018-07-20T22:23:55.236Z,7.33
2018-07-20T22:26:24.128Z,7.83
2018-07-20T22:28:52.569Z,6.70
2018-07-20T22:31:21.473Z,7.30
2018-07-20T22:33:50.360Z,6.70
2018-07-20T22:36:19.224Z,6.77
2018-07-20T22:38:48.137Z,7.07
2018-07-20T22:41:16.989Z,7.83
2018-07-20T22:43:45.937Z,7.87
2018-07-20T22:46:14.800Z,7.77
2018-07-20T22:48:43.736Z,7.70
2018-07-20T22:51:12.663Z,7.57
2018-07-20T22:53:41.561Z,8.07
2018-07-20T22:56:11.111Z,7.73
2018-07-20T22:58:40.005Z,7.87
2018-07-20T23:01:08.491Z,8.27
2018-07-20T23:03:37.365Z,8.07
2018-07-20T23:06:06.287Z,8.00
2018-07-20T23:08:35.996Z,8.37
2018-07-20T23:11:04.971Z,7.57
2018-07-20T23:13:33.848Z,7.03
2018-07-20T23:16:02.739Z,7.60
2018-07-20T23:18:31.592Z,6.70
2018-07-20T23:21:01.058Z,7.67
2018-07-20T23:23:29.937Z,7.53
2018-07-20T23:25:58.435Z,7.13
2018-07-20T23:28:27.284Z,7.47
2018-07-20T23:30:56.253Z,7.27
2018-07-20T23:33:25.197Z,7.53
2018-07-20T23:35:53.724Z,7.43
2018-07-20T23:38:22.597Z,7.80
2018-07-20T23:40:51.492Z,8.70
2018-07-20T23:43:20.555Z,7.93
2018-07-20T23:45:49.035Z,7.90
2018-07-20T23:48:17.499Z,8.00
2018-07-20T23:50:46.409Z,7.30
2018-07-20T23:53:14.871Z,6.90
2018-07-20T23:55:43.759Z,7.20
2018-07-20T23:58:12.635Z,7.50
